createdAt,value
2019-01-19T00:00:10.363Z,99818.19
2019-01-19T00:02:53.067Z,99831.14
2019-01-19T00:05:59.097Z,99835.52
2019-01-19T00:08:53.234Z,99838.26
2019-01-19T00:12:00.812Z,99843.08
2019-01-19T00:15:00.162Z,99850.89
2019-01-19T00:18:18.809Z,99857.78
2019-01-19T00:21:31.831Z,99862.52
2019-01-19T00:24:32.511Z,99870.84
2019-01-19T00:27:39.083Z,99871.94
2019-01-19T00:30:35.299Z,99877.98
2019-01-19T00:33:20.272Z,99885.34
2019-01-19T00:36:01.525Z,99881.98
2019-01-19T00:39:03.104Z,99887.51
2019-01-19T00:42:04.658Z,99884.72
2019-01-19T00:45:36.194Z,99888.10
2019-01-19T00:48:57.562Z,99888.95
2019-01-19T00:51:56.391Z,99888.33
2019-01-19T00:55:17.926Z,99892.44
2019-01-19T00:58:43.348Z,99893.54
2019-01-19T01:01:56.375Z,99887.13
2019-01-19T01:04:54.765Z,99886.78
2019-01-19T01:07:55.951Z,99890.16
2019-01-19T01:10:38.742Z,99893.51
2019-01-19T01:13:54.471Z,99890.63
2019-01-19T01:16:39.343Z,99890.16
2019-01-19T01:20:04.885Z,99893.78
2019-01-19T01:23:33.452Z,99895.22
2019-01-19T01:26:36.170Z,99902.30
2019-01-19T01:29:29.249Z,99905.68
2019-01-19T01:32:19.358Z,99926.14
2019-01-19T01:35:47.905Z,99930.39
2019-01-19T01:38:41.021Z,99934.96
2019-01-19T01:41:38.650Z,99946.76
2019-01-19T01:44:30.471Z,99961.61
2019-01-19T01:47:39.173Z,99964.86
2019-01-19T01:51:00.912Z,99967.59
2019-01-19T01:53:47.094Z,99964.55
2019-01-19T01:56:16.768Z,99967.66
2019-01-19T01:59:27.083Z,99980.11
2019-01-19T02:02:39.663Z,99980.20
2019-01-19T02:05:40.893Z,99984.09
2019-01-19T02:09:12.636Z,99975.89
2019-01-19T02:12:08.212Z,99987.22
2019-01-19T02:15:42.595Z,99992.52
2019-01-19T02:18:49.193Z,99989.15
2019-01-19T02:21:54.393Z,99993.02
2019-01-19T02:24:40.464Z,99998.66
2019-01-19T02:28:03.645Z,100002.89
2019-01-19T02:31:28.217Z,99996.23
2019-01-19T02:34:22.038Z,100010.56
2019-01-19T02:37:18.886Z,100004.65
2019-01-19T02:40:34.740Z,100009.57
2019-01-19T02:43:17.298Z,100010.84
2019-01-19T02:46:35.832Z,100019.17
2019-01-19T02:49:43.313Z,100010.44
2019-01-19T02:52:55.768Z,100022.22
2019-01-19T02:55:38.842Z,100028.30
2019-01-19T02:58:52.460Z,100041.23
2019-01-19T03:02:30.078Z,100044.01
2019-01-19T03:05:12.547Z,100041.25
2019-01-19T03:08:22.918Z,100046.45
2019-01-19T03:11:26.746Z,100049.68
2019-01-19T03:14:30.001Z,100051.85
2019-01-19T03:17:37.242Z,100062.35
2019-01-19T03:20:33.244Z,100063.80
2019-01-19T03:23:34.061Z,100064.29
2019-01-19T03:26:27.371Z,100075.14
2019-01-19T03:29:49.912Z,100077.19
2019-01-19T03:33:12.346Z,100077.33
2019-01-19T03:36:07.270Z,100086.12
2019-01-19T03:38:58.551Z,100081.91
2019-01-19T03:41:40.232Z,100082.97
2019-01-19T03:44:35.235Z,100083.20
2019-01-19T03:47:42.744Z,100080.80
2019-01-19T03:50:46.222Z,100087.16
2019-01-19T03:53:50.266Z,100090.19
2019-01-19T03:56:48.449Z,100089.80
2019-01-19T04:00:07.809Z,100083.30
2019-01-19T04:02:54.397Z,100084.57
2019-01-19T04:06:16.794Z,100082.77
2019-01-19T04:09:38.164Z,100090.22
2019-01-19T04:12:57.064Z,100084.75
2019-01-19T04:16:25.484Z,100086.08
2019-01-19T04:19:01.281Z,100098.52
2019-01-19T04:21:50.247Z,100102.42
2019-01-19T04:24:27.408Z,100102.17
2019-01-19T04:26:58.512Z,100110.63
2019-01-19T04:29:28.063Z,100110.36
2019-01-19T04:31:57.530Z,100109.99
2019-01-19T04:34:27.428Z,100123.91
2019-01-19T04:36:57.234Z,100124.39
2019-01-19T04:39:26.684Z,100133.69
2019-01-19T04:41:56.116Z,100133.33
2019-01-19T04:44:25.595Z,100133.96
2019-01-19T04:46:55.096Z,100140.45
2019-01-19T04:49:24.534Z,100137.94
2019-01-19T04:51:53.994Z,100136.38
2019-01-19T04:54:23.474Z,100137.70
2019-01-19T04:56:52.934Z,100136.86
2019-01-19T04:59:22.348Z,100136.73
2019-01-19T05:01:51.740Z,100150.73
2019-01-19T05:04:21.190Z,100151.70
2019-01-19T05:06:50.688Z,100146.66
2019-01-19T05:09:20.151Z,100147.12
2019-01-19T05:11:49.598Z,100149.67
2019-01-19T05:14:19.049Z,100156.79
2019-01-19T05:16:48.488Z,100150.29
2019-01-19T05:19:17.918Z,100157.29
2019-01-19T05:21:47.330Z,100162.10
2019-01-19T05:24:16.824Z,100163.06
2019-01-19T05:26:46.312Z,100169.10
2019-01-19T05:29:15.734Z,100171.53
2019-01-19T05:31:45.147Z,100174.91
2019-01-19T05:34:14.647Z,100175.51
2019-01-19T05:36:44.126Z,100174.66
2019-01-19T05:39:13.566Z,100175.64
2019-01-19T05:41:42.944Z,100179.61
2019-01-19T05:44:12.402Z,100183.82
2019-01-19T05:46:41.844Z,100191.06
2019-01-19T05:49:11.244Z,100185.66
2019-01-19T05:51:40.617Z,100190.09
2019-01-19T05:54:10.093Z,100198.06
2019-01-19T05:56:39.535Z,100210.34
2019-01-19T05:59:08.932Z,100219.77
2019-01-19T06:01:38.438Z,100215.39
2019-01-19T06:04:07.959Z,100218.30
2019-01-19T06:06:37.471Z,100217.94
2019-01-19T06:09:08.758Z,100213.48
2019-01-19T06:11:38.218Z,100220.00
2019-01-19T06:14:07.610Z,100227.45
2019-01-19T06:16:37.041Z,100234.67
2019-01-19T06:19:06.675Z,100237.20
2019-01-19T06:21:41.555Z,100238.65
2019-01-19T06:24:11.027Z,100245.06
2019-01-19T06:26:40.473Z,100254.49
2019-01-19T06:29:10.002Z,100256.78
2019-01-19T06:31:39.493Z,100254.66
2019-01-19T06:34:08.902Z,100253.83
2019-01-19T06:36:38.362Z,100257.70
2019-01-19T06:39:09.502Z,100257.59
2019-01-19T06:41:38.989Z,100258.18
2019-01-19T06:44:08.404Z,100254.05
2019-01-19T06:46:37.838Z,100257.98
2019-01-19T06:49:07.330Z,100253.48
2019-01-19T06:51:36.836Z,100260.34
2019-01-19T06:54:06.821Z,100267.09
2019-01-19T06:56:36.246Z,100262.94
2019-01-19T06:59:05.721Z,100270.13
2019-01-19T07:01:35.228Z,100277.69
2019-01-19T07:04:04.673Z,100280.55
2019-01-19T07:06:34.212Z,100278.60
2019-01-19T07:09:04.059Z,100279.41
2019-01-19T07:11:33.980Z,100278.67
2019-01-19T07:14:03.436Z,100282.30
2019-01-19T07:16:32.913Z,100248.29
2019-01-19T07:19:02.523Z,100285.45
2019-01-19T07:21:32.020Z,100291.83
2019-01-19T07:24:01.437Z,100293.46
2019-01-19T07:26:30.885Z,100302.80
2019-01-19T07:29:00.378Z,100307.21
2019-01-19T07:31:29.804Z,100307.44
2019-01-19T07:33:59.300Z,100309.06
2019-01-19T07:36:28.874Z,100309.55
2019-01-19T07:38:58.255Z,100311.47
2019-01-19T07:41:27.726Z,100311.86
2019-01-19T07:43:57.240Z,100311.56
2019-01-19T07:46:27.424Z,100319.86
2019-01-19T07:48:56.881Z,100317.13
2019-01-19T07:51:26.506Z,100314.41
2019-01-19T07:53:56.093Z,100317.64
2019-01-19T07:56:25.618Z,100326.04
2019-01-19T07:58:55.064Z,100324.06
2019-01-19T08:01:24.483Z,100327.61
2019-01-19T08:03:53.961Z,100333.47
2019-01-19T08:06:23.469Z,100337.17
2019-01-19T08:08:53.374Z,100338.80
2019-01-19T08:11:22.867Z,100337.48
2019-01-19T08:13:52.308Z,100342.09
2019-01-19T08:16:21.783Z,100340.66
2019-01-19T08:18:51.157Z,100342.24
2019-01-19T08:21:20.550Z,100346.76
2019-01-19T08:23:50.068Z,100350.27
2019-01-19T08:26:19.557Z,100355.64
2019-01-19T08:28:49.076Z,100362.17
2019-01-19T08:31:18.540Z,100362.09
2019-01-19T08:33:48.040Z,100363.16
2019-01-19T08:36:18.032Z,100371.96
2019-01-19T08:38:47.473Z,100372.72
2019-01-19T08:41:16.863Z,100376.06
2019-01-19T08:43:49.762Z,100372.84
2019-01-19T08:46:19.437Z,100373.20
2019-01-19T08:48:48.892Z,100377.02
2019-01-19T08:51:18.413Z,100375.81
2019-01-19T08:53:47.905Z,100376.61
2019-01-19T08:56:17.335Z,100364.97
2019-01-19T08:58:46.822Z,100368.02
2019-01-19T09:01:16.311Z,100363.91
2019-01-19T09:03:45.745Z,100364.73
2019-01-19T09:06:15.229Z,100369.45
2019-01-19T09:08:44.720Z,100370.70
2019-01-19T09:11:14.268Z,100361.80
2019-01-19T09:13:43.724Z,100366.15
2019-01-19T09:16:18.320Z,100368.74
2019-01-19T09:18:47.837Z,100366.39
2019-01-19T09:21:17.318Z,100365.38
2019-01-19T09:24:04.540Z,100358.45
2019-01-19T09:26:34.010Z,100361.63
2019-01-19T09:29:03.579Z,100360.80
2019-01-19T09:31:33.065Z,100354.42
2019-01-19T09:34:02.527Z,100349.88
2019-01-19T09:36:32.001Z,100350.70
2019-01-19T09:39:01.526Z,100349.02
2019-01-19T09:41:30.997Z,100343.92
2019-01-19T09:44:00.380Z,100342.39
2019-01-19T09:46:29.764Z,100337.60
2019-01-19T09:48:59.290Z,100329.38
2019-01-19T09:51:28.765Z,100330.72
2019-01-19T09:53:58.150Z,100330.05
2019-01-19T09:56:27.535Z,100324.33
2019-01-19T09:58:57.037Z,100329.72
2019-01-19T10:01:26.524Z,100322.11
2019-01-19T10:03:55.968Z,100317.09
2019-01-19T10:06:25.382Z,100327.45
2019-01-19T10:08:54.879Z,100322.39
2019-01-19T10:11:24.491Z,100317.33
2019-01-19T10:13:53.977Z,100307.86
2019-01-19T10:16:23.499Z,100309.84
2019-01-19T10:18:53.041Z,100307.42
2019-01-19T10:21:22.837Z,100303.09
2019-01-19T10:23:52.301Z,100307.67
2019-01-19T10:26:21.830Z,100305.27
2019-01-19T10:28:51.860Z,100300.95
2019-01-19T10:31:21.377Z,100298.73
2019-01-19T10:33:50.841Z,100300.76
2019-01-19T10:36:20.349Z,100291.31
2019-01-19T10:38:49.890Z,100291.21
2019-01-19T10:41:19.369Z,100292.01
2019-01-19T10:43:49.365Z,100296.42
2019-01-19T10:46:18.728Z,100290.78
2019-01-19T10:48:48.302Z,100291.58
2019-01-19T10:51:17.804Z,100284.77
2019-01-19T10:53:47.261Z,100289.53
2019-01-19T10:56:16.717Z,100287.30
2019-01-19T10:58:46.177Z,100288.30
2019-01-19T11:01:15.817Z,100289.63
2019-01-19T11:03:45.275Z,100283.02
2019-01-19T11:06:14.772Z,100281.67
2019-01-19T11:08:44.398Z,100279.88
2019-01-19T11:11:13.911Z,100273.39
2019-01-19T11:13:43.450Z,100277.11
2019-01-19T11:16:12.944Z,100263.96
2019-01-19T11:18:42.483Z,100269.38
2019-01-19T11:21:11.957Z,100266.55
2019-01-19T11:23:41.447Z,100263.28
2019-01-19T11:26:10.866Z,100262.80
2019-01-19T11:28:40.368Z,100262.62
2019-01-19T11:31:09.759Z,100258.52
2019-01-19T11:33:39.226Z,100258.75
2019-01-19T11:36:08.741Z,100258.75
2019-01-19T11:38:38.146Z,100258.17
2019-01-19T11:41:07.529Z,100257.70
2019-01-19T11:43:37.083Z,100257.44
2019-01-19T11:46:06.493Z,100255.22
2019-01-19T11:48:35.959Z,100255.03
2019-01-19T11:51:05.427Z,100251.27
2019-01-19T11:53:34.933Z,100249.77
2019-01-19T11:56:08.158Z,100244.56
2019-01-19T11:58:35.727Z,100244.19
2019-01-19T12:01:05.176Z,100243.12
2019-01-19T12:03:34.719Z,100245.42
2019-01-19T12:06:04.573Z,100242.43
2019-01-19T12:08:34.061Z,100239.97
2019-01-19T12:11:03.506Z,100239.34
2019-01-19T12:13:33.032Z,100237.95
2019-01-19T12:16:02.475Z,100233.04
2019-01-19T12:18:31.907Z,100238.30
2019-01-19T12:21:01.322Z,100231.20
2019-01-19T12:23:30.861Z,100222.47
2019-01-19T12:26:00.310Z,100215.91
2019-01-19T12:28:29.756Z,100219.78
2019-01-19T12:30:59.209Z,100223.80
2019-01-19T12:33:28.743Z,100223.45
2019-01-19T12:35:58.263Z,100219.17
2019-01-19T12:38:27.705Z,100221.31
2019-01-19T12:40:57.127Z,100216.63
2019-01-19T12:43:26.779Z,100223.84
2019-01-19T12:46:01.781Z,100211.47
2019-01-19T12:48:31.229Z,100211.66
2019-01-19T12:51:04.724Z,100214.34
2019-01-19T12:53:34.196Z,100218.52
2019-01-19T12:56:03.667Z,100211.35
2019-01-19T12:58:33.454Z,100210.95
2019-01-19T13:01:04.237Z,100209.64
2019-01-19T13:03:33.672Z,100217.41
2019-01-19T13:06:50.177Z,100210.35
2019-01-19T13:09:25.583Z,100214.38
2019-01-19T13:12:40.482Z,100210.47
2019-01-19T13:15:30.614Z,100209.78
2019-01-19T13:18:25.576Z,100212.68
2019-01-19T13:21:33.146Z,100210.84
2019-01-19T13:24:43.630Z,100209.60
2019-01-19T13:27:57.477Z,100208.41
2019-01-19T13:31:16.230Z,100212.92
2019-01-19T13:34:03.089Z,100204.59
2019-01-19T13:37:08.294Z,100203.84
2019-01-19T13:40:13.367Z,100202.05
2019-01-19T13:43:26.978Z,100206.58
2019-01-19T13:46:15.864Z,100200.25
2019-01-19T13:49:47.957Z,100198.94
2019-01-19T13:52:32.352Z,100197.45
2019-01-19T13:55:45.716Z,100207.20
2019-01-19T13:58:37.403Z,100206.30
2019-01-19T14:01:58.537Z,100208.66
2019-01-19T14:04:49.435Z,100203.80
2019-01-19T14:07:51.304Z,100198.20
2019-01-19T14:10:56.129Z,100195.47
2019-01-19T14:14:03.667Z,100198.70
2019-01-19T14:17:12.939Z,100203.02
2019-01-19T14:20:05.394Z,100197.75
2019-01-19T14:23:04.230Z,100186.79
2019-01-19T14:26:13.322Z,100188.83
2019-01-19T14:29:24.174Z,100177.60
2019-01-19T14:32:41.110Z,100176.81
2019-01-19T14:35:47.029Z,100172.73
2019-01-19T14:38:56.858Z,100178.34
2019-01-19T14:41:47.087Z,100178.38
2019-01-19T14:44:39.763Z,100178.50
2019-01-19T14:47:56.376Z,100169.98
2019-01-19T14:50:58.769Z,100172.59
2019-01-19T14:53:58.877Z,100178.93
2019-01-19T14:57:04.520Z,100182.22
2019-01-19T15:00:03.166Z,100177.89
2019-01-19T15:03:12.372Z,100180.41
2019-01-19T15:05:56.390Z,100179.25
2019-01-19T15:08:44.330Z,100180.36
2019-01-19T15:11:53.777Z,100179.90
2019-01-19T15:14:53.284Z,100181.12
2019-01-19T15:18:24.990Z,100191.33
2019-01-19T15:21:23.544Z,100185.02
2019-01-19T15:24:17.727Z,100183.63
2019-01-19T15:27:31.751Z,100186.78
2019-01-19T15:30:36.804Z,100183.94
2019-01-19T15:33:19.888Z,100187.11
2019-01-19T15:36:04.439Z,100186.61
2019-01-19T15:39:12.500Z,100188.23
2019-01-19T15:42:33.533Z,100191.07
2019-01-19T15:45:28.424Z,100192.68
2019-01-19T15:48:26.966Z,100197.41
2019-01-19T15:51:43.385Z,100193.11
2019-01-19T15:54:48.023Z,100193.21
2019-01-19T15:57:56.539Z,100198.76
2019-01-19T16:01:18.117Z,100195.08
2019-01-19T16:04:14.059Z,100193.22
2019-01-19T16:07:14.131Z,100191.09
2019-01-19T16:10:22.582Z,100185.77
2019-01-19T16:13:35.992Z,100188.12
2019-01-19T16:16:31.505Z,100192.61
2019-01-19T16:19:51.014Z,100185.54
2019-01-19T16:22:56.417Z,100192.22
2019-01-19T16:26:08.265Z,100191.06
2019-01-19T16:29:09.805Z,100196.63
2019-01-19T16:32:22.988Z,100188.93
2019-01-19T16:35:21.963Z,100189.71
2019-01-19T16:38:27.511Z,100195.89
2019-01-19T16:41:26.485Z,100192.87
2019-01-19T16:44:40.399Z,100195.81
2019-01-19T16:47:39.310Z,100196.30
2019-01-19T16:50:34.390Z,100194.78
2019-01-19T16:53:23.033Z,100193.69
2019-01-19T16:56:25.524Z,100179.27
2019-01-19T16:59:45.975Z,100216.58
2019-01-19T17:02:32.581Z,100216.13
2019-01-19T17:05:47.222Z,100218.47
2019-01-19T17:08:44.326Z,100225.23
2019-01-19T17:12:02.449Z,100226.35
2019-01-19T17:15:00.717Z,100227.80
2019-01-19T17:17:51.368Z,100222.96
2019-01-19T17:21:00.537Z,100226.73
2019-01-19T17:23:59.659Z,100232.05
2019-01-19T17:27:06.686Z,100236.16
2019-01-19T17:30:02.864Z,100235.17
2019-01-19T17:32:58.302Z,100237.44
2019-01-19T17:35:53.755Z,100241.16
2019-01-19T17:39:04.267Z,100241.97
2019-01-19T17:42:02.403Z,100240.00
2019-01-19T17:45:13.098Z,100238.16
2019-01-19T17:48:18.988Z,100238.62
2019-01-19T17:51:09.716Z,100245.52
2019-01-19T17:53:59.677Z,100239.35
2019-01-19T17:56:58.504Z,100236.09
2019-01-19T18:00:09.885Z,100236.30
2019-01-19T18:03:25.337Z,100231.20
2019-01-19T18:06:19.978Z,100233.87
2019-01-19T18:09:36.319Z,100232.98
2019-01-19T18:12:37.874Z,100240.47
2019-01-19T18:15:59.202Z,100238.05
2019-01-19T18:18:40.695Z,100244.55
2019-01-19T18:21:38.724Z,100241.88
2019-01-19T18:24:49.154Z,100239.02
2019-01-19T18:27:58.615Z,100240.55
2019-01-19T18:30:55.595Z,100236.08
2019-01-19T18:33:38.494Z,100241.76
2019-01-19T18:36:54.751Z,100238.97
2019-01-19T18:40:02.332Z,100245.02
2019-01-19T18:42:55.220Z,100240.30
2019-01-19T18:45:59.262Z,100241.02
2019-01-19T18:48:59.105Z,100245.02
2019-01-19T18:52:20.316Z,100234.98
2019-01-19T18:55:25.002Z,100245.98
2019-01-19T18:58:46.750Z,100245.74
2019-01-19T19:02:12.897Z,100247.43
2019-01-19T19:05:35.048Z,100244.55
2019-01-19T19:09:04.086Z,100247.48
2019-01-19T19:12:07.918Z,100243.58
2019-01-19T19:15:14.861Z,100242.65
2019-01-19T19:18:27.192Z,100249.30
2019-01-19T19:21:21.000Z,100248.70
2019-01-19T19:24:28.293Z,100242.46
2019-01-19T19:27:33.115Z,100239.08
2019-01-19T19:30:45.725Z,100245.16
2019-01-19T19:33:51.698Z,100246.73
2019-01-19T19:37:08.314Z,100249.52
2019-01-19T19:40:14.618Z,100255.12
2019-01-19T19:43:13.794Z,100257.37
2019-01-19T19:46:24.176Z,100255.81
2019-01-19T19:49:28.851Z,100254.12
2019-01-19T19:52:01.372Z,100245.73
2019-01-19T19:54:31.889Z,100258.19
2019-01-19T19:57:01.320Z,100256.12
2019-01-19T19:59:31.070Z,100252.18
2019-01-19T20:02:00.566Z,100252.18
2019-01-19T20:04:30.085Z,100256.41
2019-01-19T20:06:59.651Z,100253.38
2019-01-19T20:09:29.236Z,100251.17
2019-01-19T20:12:08.906Z,100252.02
2019-01-19T20:14:41.899Z,100254.80
2019-01-19T20:17:11.368Z,100257.26
2019-01-19T20:19:42.025Z,100257.50
2019-01-19T20:22:11.669Z,100251.97
2019-01-19T20:24:41.137Z,100256.33
2019-01-19T20:27:10.683Z,100247.63
2019-01-19T20:29:40.116Z,100249.44
2019-01-19T20:32:09.672Z,100252.94
2019-01-19T20:34:39.219Z,100259.95
2019-01-19T20:37:08.628Z,100249.31
2019-01-19T20:39:38.148Z,100253.78
2019-01-19T20:42:07.619Z,100250.48
2019-01-19T20:44:37.079Z,100249.64
2019-01-19T20:47:06.827Z,100250.13
2019-01-19T20:49:36.484Z,100249.43
2019-01-19T20:52:05.958Z,100249.67
2019-01-19T20:54:35.614Z,100254.19
2019-01-19T20:57:05.185Z,100248.29
2019-01-19T20:59:34.717Z,100241.91
2019-01-19T21:02:04.296Z,100249.81
2019-01-19T21:04:33.814Z,100248.28
2019-01-19T21:07:03.385Z,100255.42
2019-01-19T21:09:33.732Z,100253.86
2019-01-19T21:12:03.231Z,100248.17
2019-01-19T21:14:32.977Z,100253.47
2019-01-19T21:17:02.570Z,100260.45
2019-01-19T21:19:32.086Z,100263.70
2019-01-19T21:22:02.327Z,100253.08
2019-01-19T21:24:31.892Z,100258.25
2019-01-19T21:27:01.402Z,100255.93
2019-01-19T21:29:31.031Z,100258.47
2019-01-19T21:32:00.419Z,100256.84
2019-01-19T21:34:29.881Z,100252.98
2019-01-19T21:36:59.374Z,100251.06
2019-01-19T21:39:28.846Z,100258.06
2019-01-19T21:41:58.270Z,100250.11
2019-01-19T21:44:30.679Z,100260.60
2019-01-19T21:47:01.686Z,100254.56
2019-01-19T21:49:31.159Z,100253.83
2019-01-19T21:52:00.623Z,100254.94
2019-01-19T21:54:30.042Z,100250.84
2019-01-19T21:56:59.549Z,100249.00
2019-01-19T21:59:29.003Z,100256.43
2019-01-19T22:01:58.474Z,100247.98
2019-01-19T22:04:27.925Z,100244.59
2019-01-19T22:06:57.362Z,100243.58
2019-01-19T22:09:26.930Z,100241.23
2019-01-19T22:11:56.606Z,100233.13
2019-01-19T22:14:26.158Z,100233.59
2019-01-19T22:16:55.722Z,100227.70
2019-01-19T22:19:25.268Z,100230.95
2019-01-19T22:21:54.830Z,100223.36
2019-01-19T22:24:24.382Z,100218.91
2019-01-19T22:26:54.325Z,100223.73
2019-01-19T22:29:23.962Z,100225.05
2019-01-19T22:31:53.527Z,100221.73
2019-01-19T22:34:23.090Z,100217.66
2019-01-19T22:36:52.669Z,100217.77
2019-01-19T22:39:22.226Z,100212.25
2019-01-19T22:41:51.887Z,100211.14
2019-01-19T22:44:21.470Z,100200.80
2019-01-19T22:46:51.046Z,100206.95
2019-01-19T22:49:20.607Z,100192.47
2019-01-19T22:51:50.224Z,100188.86
2019-01-19T22:54:19.781Z,100190.35
2019-01-19T22:56:49.386Z,100194.09
2019-01-19T22:59:18.944Z,100191.14
2019-01-19T23:01:57.578Z,100187.31
2019-01-19T23:04:27.214Z,100187.17
2019-01-19T23:06:56.785Z,100185.00
2019-01-19T23:09:26.357Z,100180.11
2019-01-19T23:11:55.913Z,100172.32
2019-01-19T23:14:25.800Z,100172.80
2019-01-19T23:16:55.335Z,100176.08
2019-01-19T23:19:24.878Z,100169.72
2019-01-19T23:21:54.409Z,100173.55
2019-01-19T23:24:23.937Z,100168.30
2019-01-19T23:26:56.245Z,100175.13
2019-01-19T23:29:25.771Z,100178.93
2019-01-19T23:31:55.286Z,100174.98
2019-01-19T23:34:24.901Z,100171.44
2019-01-19T23:36:54.440Z,100171.05
2019-01-19T23:39:23.995Z,100174.52
2019-01-19T23:41:53.718Z,100173.59
2019-01-19T23:44:23.263Z,100172.34
2019-01-19T23:46:52.810Z,100173.88
2019-01-19T23:49:22.351Z,100172.76
2019-01-19T23:51:51.994Z,100173.37
2019-01-19T23:54:21.535Z,100166.59
2019-01-19T23:56:51.069Z,100161.67
2019-01-19T23:59:20.616Z,100161.50
